Time;durP1;ratioP1;P1;durP2;ratioP2;P2;SDS_P1;SDS_P2;PMS_P1;PMS_P2;Temp;Humidity;BMP_temperature;BMP_pressure;BME280_temperature;BME280_humidity;BME280_pressure;Samples;Min_cycle;Max_cycle;Signal;HPM_P1;HPM_P2
2024/02/14 00:05:01;;;;;;;0.45;0.45;;;10.90;99.90;;;;;;10429608;28;20424;-59
2024/02/14 00:10:05;;;;;;;0.20;0.20;;;10.60;99.90;;;;;;10429309;28;20056;-59
2024/02/14 00:15:09;;;;;;;0.10;0.10;;;11.10;99.90;;;;;;10423181;28;20053;-59
2024/02/14 00:20:12;;;;;;;0.32;0.32;;;10.30;99.90;;;;;;10422492;28;20595;-59
2024/02/14 00:25:14;;;;;;;1.20;1.10;;;10.20;99.90;;;;;;10423082;28;20165;-59
2024/02/14 00:30:18;;;;;;;0.10;0.10;;;9.90;99.90;;;;;;10430595;28;20052;-59
2024/02/14 00:35:20;;;;;;;0.10;0.10;;;10.30;99.90;;;;;;10428698;28;20411;-59
2024/02/14 00:40:22;;;;;;;0.60;0.60;;;10.50;99.90;;;;;;10425298;28;20783;-60
2024/02/14 00:45:26;;;;;;;0.35;0.35;;;10.50;99.90;;;;;;10430305;28;20053;-60
2024/02/14 00:50:28;;;;;;;0.75;0.75;;;10.70;99.90;;;;;;10427318;28;20057;-60
2024/02/14 00:55:30;;;;;;;2.63;1.48;;;10.70;99.90;;;;;;10433299;28;20801;-58
2024/02/14 01:00:33;;;;;;;0.68;0.68;;;10.50;99.90;;;;;;10432660;28;20056;-59
2024/02/14 01:05:35;;;;;;;3.53;1.48;;;10.50;99.90;;;;;;10424980;28;20050;-59
2024/02/14 01:10:38;;;;;;;0.30;0.30;;;10.60;99.90;;;;;;10431047;28;20053;-60
2024/02/14 01:15:41;;;;;;;0.10;0.10;;;10.90;99.90;;;;;;10425778;28;20048;-61
2024/02/14 01:20:43;;;;;;;0.20;0.20;;;10.50;99.90;;;;;;10431219;28;20053;-60
2024/02/14 01:25:45;;;;;;;0.20;0.20;;;10.50;99.90;;;;;;10432460;28;20139;-60
2024/02/14 01:30:50;;;;;;;0.10;0.10;;;10.50;99.90;;;;;;10429416;28;20049;-60
2024/02/14 01:35:52;;;;;;;0.10;0.10;;;10.50;99.90;;;;;;10430654;28;20041;-59
2024/02/14 01:40:54;;;;;;;0.20;0.20;;;10.80;99.90;;;;;;10429290;28;20056;-59
2024/02/14 01:46:05;;;;;;;0.40;0.40;;;10.60;99.90;;;;;;10424011;28;20049;-60
2024/02/14 01:51:09;;;;;;;0.10;0.10;;;10.70;99.90;;;;;;10429978;28;20048;-60
2024/02/14 01:56:12;;;;;;;7.68;1.67;;;10.70;99.90;;;;;;10426246;28;20044;-59
2024/02/14 02:01:17;;;;;;;0.10;0.10;;;10.60;99.90;;;;;;10430700;28;20059;-59
2024/02/14 02:06:19;;;;;;;0.10;0.10;;;10.80;99.90;;;;;;10434227;28;20045;-59
2024/02/14 02:11:22;;;;;;;0.20;0.20;;;10.70;99.90;;;;;;10431109;28;20526;-59
2024/02/14 02:16:26;;;;;;;28.13;10.60;;;10.60;99.90;;;;;;10428381;28;20156;-61
2024/02/14 02:21:29;;;;;;;34.88;13.40;;;10.70;99.90;;;;;;10424337;28;20057;-60
2024/02/14 02:26:32;;;;;;;;;;;10.60;99.90;;;;;;10428297;28;20557;-59
2024/02/14 02:31:34;;;;;;;29.75;13.77;;;10.60;99.90;;;;;;10430268;28;19960;-59
2024/02/14 02:36:37;;;;;;;35.75;13.95;;;10.70;99.90;;;;;;10424728;28;20048;-59
2024/02/14 02:41:41;;;;;;;46.67;13.48;;;10.60;99.90;;;;;;10433980;28;20056;-60
2024/02/14 02:46:45;;;;;;;42.25;12.70;;;10.60;99.90;;;;;;10424185;28;20123;-59
2024/02/14 02:51:47;;;;;;;48.30;15.45;;;10.50;99.90;;;;;;10432757;28;20063;-61
2024/02/14 02:56:51;;;;;;;34.28;10.38;;;10.40;99.90;;;;;;10432601;28;20064;-59
2024/02/14 03:01:53;;;;;;;39.95;14.85;;;10.50;99.90;;;;;;10432037;28;20059;-60
2024/02/14 03:06:55;;;;;;;42.03;15.18;;;10.50;99.90;;;;;;10429706;28;20427;-58
2024/02/14 03:11:58;;;;;;;55.08;13.90;;;10.30;99.90;;;;;;10428652;28;20057;-61
2024/02/14 03:17:01;;;;;;;55.03;15.50;;;10.30;99.90;;;;;;10426951;28;20187;-60
2024/02/14 03:22:05;;;;;;;53.78;14.52;;;10.40;99.90;;;;;;10428004;28;20499;-60
2024/02/14 03:27:08;;;;;;;59.20;14.73;;;10.40;99.90;;;;;;10430282;28;20230;-60
2024/02/14 03:32:11;;;;;;;63.22;15.65;;;10.40;99.90;;;;;;10428278;28;20091;-60
2024/02/14 03:37:13;;;;;;;68.20;13.88;;;10.30;99.90;;;;;;10425115;28;20083;-60
2024/02/14 03:42:16;;;;;;;79.10;16.13;;;10.40;99.90;;;;;;10432201;28;20060;-60
2024/02/14 03:47:19;;;;;;;67.32;16.20;;;10.40;99.90;;;;;;10421793;28;20105;-60
2024/02/14 03:52:22;;;;;;;66.87;19.43;;;10.30;99.90;;;;;;10428985;28;20106;-60
2024/02/14 04:15:32;;;;;;;26.63;7.57;;;10.10;99.90;;;;;;10575011;27;20118;-60
2024/02/14 04:20:34;;;;;;;68.00;17.00;;;10.50;99.90;;;;;;10594742;27;20164;-61
2024/02/14 04:25:37;;;;;;;84.78;18.25;;;10.30;99.90;;;;;;10602024;27;20046;-61
2024/02/14 04:30:41;;;;;;;55.20;12.75;;;10.30;99.90;;;;;;10594730;27;20044;-61
2024/02/14 04:35:44;;;;;;;54.65;16.00;;;10.20;99.90;;;;;;10598191;27;20082;-62
2024/02/14 04:40:46;;;;;;;32.45;10.05;;;10.30;99.90;;;;;;10599342;27;20097;-62
2024/02/14 04:45:50;;;;;;;51.22;15.70;;;10.40;99.90;;;;;;10596292;27;20055;-60
2024/02/14 04:50:52;;;;;;;58.25;15.00;;;10.50;99.90;;;;;;10594264;27;20438;-61
2024/02/14 04:55:55;;;;;;;57.27;14.00;;;10.40;99.90;;;;;;10593947;27;20504;-60
2024/02/14 05:00:58;;;;;;;58.10;9.67;;;10.40;99.90;;;;;;10600598;27;20065;-62
2024/02/14 05:06:02;;;;;;;44.35;9.70;;;10.50;99.90;;;;;;10595169;27;20433;-60
2024/02/14 05:11:04;;;;;;;58.50;11.23;;;10.50;99.90;;;;;;10597598;27;20533;-60
2024/02/14 05:16:10;;;;;;;56.93;13.97;;;10.50;99.90;;;;;;10591280;27;20490;-60
2024/02/14 05:21:12;;;;;;;59.20;14.85;;;10.60;99.90;;;;;;10586612;27;20035;-61
2024/02/14 05:26:14;;;;;;;59.03;16.85;;;10.70;99.90;;;;;;10567891;27;20566;-60
2024/02/14 05:31:18;;;;;;;42.88;12.30;;;10.70;99.90;;;;;;10560852;27;20134;-61
2024/02/14 05:36:20;;;;;;;60.63;14.13;;;10.90;99.90;;;;;;10562447;27;20097;-61
2024/02/14 05:41:23;;;;;;;72.45;17.33;;;10.70;99.90;;;;;;10564336;27;20047;-61
2024/02/14 05:46:27;;;;;;;51.75;10.82;;;10.90;99.90;;;;;;10567305;27;20044;-62
2024/02/14 05:51:29;;;;;;;45.17;12.18;;;11.20;99.90;;;;;;10567408;27;20555;-64
2024/02/14 05:56:31;;;;;;;36.45;8.63;;;11.30;99.90;;;;;;10566894;27;20422;-59
2024/02/14 06:01:35;;;;;;;39.03;10.50;;;11.50;99.90;;;;;;10570450;27;20039;-61
2024/02/14 06:06:38;;;;;;;40.38;10.85;;;11.00;99.90;;;;;;10571806;27;20066;-61
2024/02/14 06:11:40;;;;;;;34.13;11.40;;;11.10;99.90;;;;;;10558217;27;20411;-61
2024/02/14 06:16:43;;;;;;;26.60;10.97;;;11.10;99.90;;;;;;10563388;27;20059;-60
2024/02/14 06:21:46;;;;;;;45.38;16.52;;;11.10;99.90;;;;;;10570081;27;20509;-61
2024/02/14 06:26:48;;;;;;;54.17;16.97;;;11.20;99.90;;;;;;10562484;27;20058;-61
2024/02/14 06:31:51;;;;;;;31.80;14.45;;;11.20;99.90;;;;;;10555902;27;20061;-61
2024/02/14 06:36:53;;;;;;;50.67;16.15;;;11.20;99.90;;;;;;10547233;27;20391;-61
2024/02/14 06:41:55;;;;;;;33.25;11.43;;;11.30;99.90;;;;;;10560468;27;20388;-64
2024/02/14 06:46:59;;;;;;;43.70;15.17;;;11.50;99.90;;;;;;10553707;27;20059;-62
2024/02/14 06:52:01;;;;;;;39.80;14.95;;;11.40;99.90;;;;;;10560055;27;20151;-62
2024/02/14 06:57:03;;;;;;;27.20;10.18;;;11.30;99.90;;;;;;10557683;27;20805;-60
2024/02/14 07:02:07;;;;;;;34.50;11.13;;;11.40;99.90;;;;;;10556368;27;20885;-61
2024/02/14 07:07:09;;;;;;;41.95;13.25;;;11.60;99.90;;;;;;10555494;27;20096;-60
2024/02/14 07:12:11;;;;;;;39.27;12.87;;;11.40;99.90;;;;;;10559673;27;20039;-60
2024/02/14 07:17:14;;;;;;;28.03;7.43;;;11.20;99.90;;;;;;10553266;27;20498;-61
2024/02/14 07:22:18;;;;;;;19.02;6.43;;;11.60;99.90;;;;;;10553717;27;20062;-60
2024/02/14 07:27:21;;;;;;;30.73;9.25;;;11.60;99.90;;;;;;10549948;27;20055;-59
2024/02/14 07:32:24;;;;;;;25.25;7.22;;;11.60;99.90;;;;;;10551053;27;20216;-62
2024/02/14 07:37:26;;;;;;;28.02;10.43;;;11.50;99.90;;;;;;10555058;27;20062;-62
2024/02/14 07:42:28;;;;;;;30.63;14.45;;;11.60;99.90;;;;;;10549851;27;20054;-61
2024/02/14 07:47:32;;;;;;;21.88;10.68;;;11.50;99.90;;;;;;10545109;27;20589;-61
2024/02/14 07:52:36;;;;;;;24.55;9.10;;;11.50;99.90;;;;;;10549159;27;20093;-61
2024/02/14 07:57:38;;;;;;;28.58;14.15;;;11.60;99.90;;;;;;10547182;27;20066;-61
2024/02/14 08:02:41;;;;;;;17.33;11.00;;;11.50;99.90;;;;;;10555266;27;20066;-61
2024/02/14 08:07:43;;;;;;;23.08;13.88;;;11.50;99.90;;;;;;10549231;27;20051;-61
2024/02/14 08:12:47;;;;;;;27.73;13.00;;;11.60;99.90;;;;;;10551171;28;20051;-61
2024/02/14 08:17:53;;;;;;;22.58;13.93;;;11.30;99.90;;;;;;10545961;28;20058;-61
2024/02/14 08:22:55;;;;;;;20.20;13.43;;;11.50;99.90;;;;;;10555460;28;20071;-61
2024/02/14 08:27:58;;;;;;;18.92;13.07;;;11.40;99.90;;;;;;10550197;28;20086;-62
2024/02/14 08:33:01;;;;;;;18.80;10.33;;;11.30;99.90;;;;;;10555563;28;20039;-61
2024/02/14 08:38:03;;;;;;;18.95;11.13;;;11.70;99.90;;;;;;10549579;28;20153;-60
2024/02/14 08:43:05;;;;;;;19.35;11.25;;;11.60;99.90;;;;;;10543206;28;20051;-61
2024/02/14 08:48:09;;;;;;;14.03;9.83;;;11.40;99.90;;;;;;10549985;28;20047;-62
2024/02/14 08:53:12;;;;;;;10.90;6.80;;;11.50;99.90;;;;;;10550163;28;20117;-61
2024/02/14 08:58:14;;;;;;;11.05;7.30;;;11.50;99.90;;;;;;10550317;27;20051;-61
2024/02/14 09:03:19;;;;;;;0.10;0.10;;;11.60;99.90;;;;;;10562002;27;20506;-60
2024/02/14 09:08:21;;;;;;;0.80;0.80;;;11.60;99.90;;;;;;10558433;27;20121;-61
2024/02/14 09:13:23;;;;;;;0.10;0.10;;;11.90;99.90;;;;;;10561773;27;20048;-60
2024/02/14 09:18:27;;;;;;;0.20;0.20;;;12.00;99.90;;;;;;10563405;27;20054;-60
2024/02/14 09:23:29;;;;;;;0.10;0.10;;;11.70;99.90;;;;;;10563112;27;20036;-58
2024/02/14 09:28:33;;;;;;;0.57;0.57;;;11.60;99.90;;;;;;10567714;27;20794;-60
2024/02/14 09:33:36;;;;;;;0.20;0.20;;;11.30;99.90;;;;;;10554402;27;20046;-60
2024/02/14 09:38:39;;;;;;;3.83;1.65;;;11.50;99.90;;;;;;10558244;27;21092;-58
2024/02/14 09:43:44;;;;;;;0.20;0.20;;;11.50;99.90;;;;;;10563338;27;20044;-60
2024/02/14 09:48:47;;;;;;;0.10;0.10;;;11.50;99.90;;;;;;10558500;27;20480;-61
2024/02/14 09:53:53;;;;;;;0.10;0.10;;;11.60;99.90;;;;;;10559371;27;20472;-60
2024/02/14 09:58:56;;;;;;;0.10;0.10;;;11.70;99.90;;;;;;10554424;27;20225;-60
2024/02/14 10:03:59;;;;;;;0.10;0.10;;;12.60;99.90;;;;;;10555391;27;20062;-60
2024/02/14 10:09:01;;;;;;;0.10;0.10;;;12.20;99.90;;;;;;10560317;27;20050;-62
2024/02/14 10:14:08;;;;;;;0.40;0.40;;;11.60;99.90;;;;;;10552103;27;20877;-62
2024/02/14 10:19:18;;;;;;;0.10;0.10;;;12.10;99.90;;;;;;10560437;27;20060;-60
2024/02/14 10:24:20;;;;;;;0.10;0.10;;;11.80;99.90;;;;;;10556852;27;20047;-59
2024/02/14 10:29:23;;;;;;;0.43;0.43;;;11.50;99.90;;;;;;10555069;27;20063;-60
2024/02/14 10:34:27;;;;;;;0.00;0.00;;;12.00;99.90;;;;;;10551069;27;20051;-60
2024/02/14 10:39:32;;;;;;;0.10;0.10;;;12.20;99.90;;;;;;10556438;27;20589;-59
2024/02/14 10:44:35;;;;;;;0.13;0.13;;;11.90;99.90;;;;;;10559348;27;20089;-60
2024/02/14 10:49:40;;;;;;;0.10;0.10;;;11.70;99.90;;;;;;10556344;27;20134;-61
2024/02/14 10:54:48;;;;;;;0.10;0.10;;;12.00;99.90;;;;;;10555780;27;20054;-60
2024/02/14 10:59:50;;;;;;;0.10;0.10;;;11.90;99.90;;;;;;10555571;27;20082;-60
2024/02/14 11:04:54;;;;;;;0.30;0.30;;;12.00;99.90;;;;;;10551628;27;20170;-61
2024/02/14 11:10:06;;;;;;;0.20;0.20;;;11.90;99.90;;;;;;10551697;27;20063;-62
2024/02/14 11:15:12;;;;;;;0.10;0.10;;;11.80;99.90;;;;;;10556517;27;20082;-60
2024/02/14 11:20:20;;;;;;;0.10;0.10;;;11.80;99.90;;;;;;10548336;27;20059;-60
2024/02/14 11:25:25;;;;;;;0.10;0.10;;;11.90;99.90;;;;;;10550385;27;20947;-60
2024/02/14 11:30:35;;;;;;;0.10;0.10;;;11.90;99.90;;;;;;10549236;27;20059;-60
2024/02/14 11:35:42;;;;;;;0.15;0.15;;;12.20;99.90;;;;;;10548562;27;20048;-60
2024/02/14 11:40:44;;;;;;;0.10;0.10;;;12.00;99.90;;;;;;10551529;27;20048;-61
2024/02/14 11:45:49;;;;;;;2.72;1.55;;;12.20;99.90;;;;;;10547732;27;20078;-60
2024/02/14 11:50:55;;;;;;;0.20;0.20;;;12.00;99.90;;;;;;10551688;27;20088;-61
2024/02/14 11:55:57;;;;;;;0.52;0.52;;;12.20;99.90;;;;;;10543369;27;20066;-61
2024/02/14 12:00:59;;;;;;;0.00;0.00;;;11.90;99.90;;;;;;10545445;27;20051;-61
2024/02/14 12:06:03;;;;;;;1.13;0.63;;;11.80;99.90;;;;;;10554178;27;20864;-59
2024/02/14 12:11:05;;;;;;;0.10;0.10;;;11.90;99.90;;;;;;10542845;28;20793;-59
2024/02/14 12:16:09;;;;;;;0.20;0.20;;;11.90;99.90;;;;;;10549221;28;20130;-59
2024/02/14 12:21:12;;;;;;;0.10;0.10;;;11.80;99.90;;;;;;10544249;28;20108;-60
2024/02/14 12:26:19;;;;;;;0.10;0.10;;;11.90;99.90;;;;;;10556776;28;20055;-61
2024/02/14 12:31:25;;;;;;;0.20;0.20;;;11.90;99.90;;;;;;10550869;27;20105;-60
2024/02/14 12:36:29;;;;;;;0.15;0.15;;;11.90;99.90;;;;;;10555577;27;20145;-60
2024/02/14 12:41:31;;;;;;;0.40;0.40;;;11.90;99.90;;;;;;10554493;27;20140;-60
2024/02/14 12:46:33;;;;;;;0.10;0.10;;;12.00;99.90;;;;;;10559407;27;20067;-60
2024/02/14 12:51:38;;;;;;;0.10;0.10;;;12.00;99.90;;;;;;10564056;27;20043;-60
2024/02/14 12:56:40;;;;;;;0.10;0.10;;;12.10;99.90;;;;;;10564148;27;20047;-61
2024/02/14 13:01:43;;;;;;;0.20;0.20;;;12.00;99.90;;;;;;10565190;27;20213;-62
2024/02/14 13:06:47;;;;;;;;;;;12.10;99.90;;;;;;10562261;27;20108;-61
2024/02/14 13:11:52;;;;;;;0.10;0.10;;;12.10;99.90;;;;;;10558301;27;20690;-61
2024/02/14 13:16:54;;;;;;;0.10;0.10;;;12.10;99.90;;;;;;10561080;27;20495;-61
2024/02/14 13:21:57;;;;;;;0.10;0.10;;;12.10;99.90;;;;;;10555026;27;20048;-62
2024/02/14 13:27:00;;;;;;;0.30;0.30;;;12.20;99.90;;;;;;10546312;27;20092;-59
2024/02/14 13:32:02;;;;;;;0.10;0.10;;;12.20;99.90;;;;;;10554834;27;20059;-61
2024/02/14 13:37:06;;;;;;;0.10;0.10;;;12.30;99.90;;;;;;10557106;27;21253;-59
2024/02/14 13:42:08;;;;;;;0.22;0.22;;;12.10;99.90;;;;;;10560917;27;20081;-60
2024/02/14 13:47:10;;;;;;;1.10;0.90;;;12.00;99.90;;;;;;10559941;27;20043;-60
2024/02/14 13:52:15;;;;;;;0.00;0.00;;;12.10;99.90;;;;;;10563820;27;20051;-58
2024/02/14 13:57:17;;;;;;;0.10;0.10;;;11.90;99.90;;;;;;10556095;27;20077;-61
2024/02/14 14:02:19;;;;;;;0.10;0.10;;;12.10;99.90;;;;;;10562350;27;20136;-61
2024/02/14 14:07:23;;;;;;;0.20;0.20;;;12.10;99.90;;;;;;10559225;27;20212;-60
2024/02/14 14:12:25;;;;;;;0.10;0.10;;;12.10;99.90;;;;;;10555536;27;20105;-61
2024/02/14 14:17:28;;;;;;;0.10;0.10;;;12.10;99.90;;;;;;10552742;27;20768;-61
2024/02/14 14:22:32;;;;;;;0.40;0.40;;;12.10;99.90;;;;;;10557530;27;20097;-59
2024/02/14 14:27:33;;;;;;;0.10;0.10;;;12.10;99.90;;;;;;10558379;27;20129;-61
2024/02/14 14:32:36;;;;;;;19.92;3.67;;;12.20;99.90;;;;;;10539222;27;20364;-61
2024/02/14 14:37:39;;;;;;;0.30;0.30;;;12.20;99.90;;;;;;10541819;27;20048;-61
2024/02/14 14:42:41;;;;;;;35.55;4.50;;;12.20;99.90;;;;;;10553678;27;20076;-61
2024/02/14 14:47:43;;;;;;;20.63;3.47;;;11.90;99.90;;;;;;10558003;27;20047;-61
2024/02/14 14:52:47;;;;;;;33.95;4.43;;;12.00;99.90;;;;;;10553725;27;20052;-62
2024/02/14 14:57:48;;;;;;;29.58;4.05;;;11.80;99.90;;;;;;10554583;27;21466;-61
2024/02/14 15:02:51;;;;;;;16.25;2.58;;;11.70;99.90;;;;;;10555215;27;20063;-61
2024/02/14 15:07:54;;;;;;;12.40;2.45;;;11.90;99.90;;;;;;10547879;27;20719;-61
2024/02/14 15:12:56;;;;;;;29.30;3.90;;;11.80;99.90;;;;;;10552966;27;20059;-61
2024/02/14 15:17:58;;;;;;;16.47;2.53;;;11.80;99.90;;;;;;10537620;27;20097;-61
2024/02/14 15:23:05;;;;;;;20.88;3.75;;;11.80;99.90;;;;;;10551221;27;20146;-62
2024/02/14 15:28:12;;;;;;;34.30;5.05;;;11.50;99.90;;;;;;10548489;27;20085;-62
2024/02/14 15:33:23;;;;;;;21.58;3.58;;;11.70;99.90;;;;;;10554083;27;20040;-62
2024/02/14 15:38:27;;;;;;;49.05;6.05;;;11.80;99.90;;;;;;10552481;27;20060;-61
2024/02/14 15:43:29;;;;;;;17.95;3.60;;;11.70;99.90;;;;;;10548264;27;20502;-62
2024/02/14 15:48:33;;;;;;;25.90;5.00;;;11.70;99.90;;;;;;10544616;27;20098;-62
2024/02/14 15:53:37;;;;;;;26.08;4.13;;;11.70;99.90;;;;;;10537025;27;20051;-61
2024/02/14 15:58:39;;;;;;;30.02;4.63;;;11.80;99.90;;;;;;10544589;27;20265;-61
2024/02/14 16:03:41;;;;;;;35.42;5.60;;;11.70;99.90;;;;;;10546928;27;20051;-61
2024/02/14 16:08:45;;;;;;;30.20;4.68;;;12.00;99.90;;;;;;10538869;27;20122;-62
2024/02/14 16:13:47;;;;;;;20.33;3.95;;;11.80;99.90;;;;;;10545012;27;20043;-62
2024/02/14 16:18:49;;;;;;;41.42;6.53;;;11.70;99.90;;;;;;10544330;28;21426;-62
2024/02/14 16:23:52;;;;;;;26.08;4.43;;;11.50;99.90;;;;;;10548073;27;20073;-61
2024/02/14 16:28:55;;;;;;;20.95;3.67;;;11.70;99.90;;;;;;10542787;28;20159;-61
2024/02/14 16:33:57;;;;;;;24.05;3.90;;;11.80;99.90;;;;;;10552523;28;20358;-63
2024/02/14 16:39:01;;;;;;;31.13;4.40;;;11.70;99.90;;;;;;10547867;28;20846;-61
2024/02/14 16:44:03;;;;;;;33.40;4.72;;;11.70;99.90;;;;;;10549097;28;20576;-61
2024/02/14 16:49:05;;;;;;;41.13;5.07;;;11.60;99.90;;;;;;10546653;28;20108;-61
2024/02/14 16:54:08;;;;;;;35.50;5.50;;;11.50;99.90;;;;;;10555706;27;20040;-61
2024/02/14 16:59:11;;;;;;;39.58;6.85;;;11.30;99.90;;;;;;10554809;28;20128;-61
2024/02/14 17:04:13;;;;;;;33.63;5.82;;;11.50;99.90;;;;;;10557090;28;20051;-61
2024/02/14 17:09:16;;;;;;;35.50;6.27;;;11.50;99.90;;;;;;10558352;28;20048;-62
2024/02/14 17:14:20;;;;;;;26.60;6.15;;;11.30;99.90;;;;;;10555818;28;20501;-62
2024/02/14 17:19:22;;;;;;;33.67;5.03;;;11.70;99.90;;;;;;10545814;27;20186;-61
2024/02/14 17:24:26;;;;;;;33.55;6.00;;;11.90;99.90;;;;;;10553914;27;20432;-61
2024/02/14 17:29:28;;;;;;;27.75;5.28;;;11.70;99.90;;;;;;10553893;27;20055;-61
2024/02/14 17:34:33;;;;;;;23.77;5.30;;;11.50;99.90;;;;;;10552517;27;20079;-62
2024/02/14 17:39:36;;;;;;;29.23;5.38;;;11.40;99.90;;;;;;10550749;27;20051;-62
2024/02/14 17:44:39;;;;;;;35.75;6.68;;;11.40;99.90;;;;;;10553979;27;20081;-63
2024/02/14 17:49:43;;;;;;;30.83;6.63;;;11.40;99.90;;;;;;10556326;27;20059;-64
2024/02/14 17:54:47;;;;;;;21.20;5.95;;;11.50;99.90;;;;;;10560545;27;20095;-63
2024/02/14 17:59:49;;;;;;;32.40;6.85;;;11.40;99.90;;;;;;10563078;27;20131;-63
2024/02/14 18:04:54;;;;;;;35.07;6.47;;;11.40;99.90;;;;;;10558774;27;20541;-63
2024/02/14 18:09:58;;;;;;;36.22;6.15;;;11.40;99.90;;;;;;10559956;27;20070;-63
2024/02/14 18:15:00;;;;;;;35.42;7.93;;;11.30;99.90;;;;;;10551157;27;20043;-63
2024/02/14 18:20:03;;;;;;;29.77;6.67;;;11.30;99.90;;;;;;10559987;27;20083;-62
2024/02/14 18:25:12;;;;;;;36.15;5.70;;;11.20;99.90;;;;;;10560769;27;20043;-64
2024/02/14 18:30:15;;;;;;;23.35;5.70;;;11.30;99.90;;;;;;10555532;27;20107;-63
2024/02/14 18:35:18;;;;;;;26.15;6.13;;;11.30;99.90;;;;;;10553290;27;20047;-63
2024/02/14 18:40:22;;;;;;;43.50;7.23;;;11.50;99.90;;;;;;10553252;27;20135;-64
2024/02/14 18:45:24;;;;;;;33.47;8.45;;;11.30;99.90;;;;;;10552360;27;23379;-63
2024/02/14 18:50:26;;;;;;;32.83;8.27;;;11.20;99.90;;;;;;10554218;27;20050;-64
2024/02/14 18:55:30;;;;;;;28.42;7.05;;;11.20;99.90;;;;;;10559022;27;20506;-63
2024/02/14 19:00:32;;;;;;;36.03;7.70;;;11.30;99.90;;;;;;10556407;27;20067;-63
2024/02/14 19:05:34;;;;;;;27.73;6.67;;;11.10;99.90;;;;;;10560804;27;20051;-64
2024/02/14 19:10:37;;;;;;;28.98;6.20;;;11.00;99.90;;;;;;10556749;27;20160;-64
2024/02/14 19:15:39;;;;;;;28.88;7.28;;;11.00;99.90;;;;;;10558021;27;20210;-62
2024/02/14 19:20:44;;;;;;;32.03;9.13;;;11.20;99.90;;;;;;10558475;27;20178;-65
2024/02/14 19:25:48;;;;;;;23.48;7.00;;;11.00;99.90;;;;;;10553790;27;20063;-64
2024/02/14 19:30:51;;;;;;;27.20;7.50;;;11.10;99.90;;;;;;10554436;27;20054;-68
2024/02/14 19:35:53;;;;;;;36.27;8.37;;;11.10;99.90;;;;;;10554691;27;20048;-64
2024/02/14 19:40:56;;;;;;;45.50;8.00;;;11.20;99.90;;;;;;10554498;27;20058;-63
2024/02/14 19:46:00;;;;;;;42.67;9.05;;;11.20;99.90;;;;;;10560595;27;21291;-65
2024/02/14 19:51:02;;;;;;;28.45;6.32;;;11.40;99.90;;;;;;10556026;27;20455;-62
2024/02/14 19:56:06;;;;;;;38.73;6.43;;;11.50;99.90;;;;;;10554772;27;20086;-62
2024/02/14 20:01:09;;;;;;;29.10;5.65;;;11.40;99.90;;;;;;10554491;27;20405;-63
2024/02/14 20:06:11;;;;;;;41.63;7.82;;;11.40;99.90;;;;;;10559190;27;20199;-63
2024/02/14 20:11:15;;;;;;;45.47;7.57;;;11.20;99.90;;;;;;10558094;27;20056;-63
2024/02/14 20:16:17;;;;;;;33.88;6.32;;;11.30;99.90;;;;;;10546953;28;20047;-64
2024/02/14 20:21:19;;;;;;;36.42;7.35;;;11.30;99.90;;;;;;10557729;28;20071;-63
2024/02/14 20:26:23;;;;;;;33.20;6.50;;;11.40;99.90;;;;;;10553852;28;20059;-64
2024/02/14 20:31:25;;;;;;;29.17;5.20;;;11.40;99.90;;;;;;10552705;28;20051;-62
2024/02/14 20:36:27;;;;;;;31.83;6.47;;;11.40;99.90;;;;;;10547909;28;22382;-63
2024/02/14 20:41:31;;;;;;;38.80;5.18;;;11.40;99.90;;;;;;10547303;28;20117;-63
2024/02/14 20:46:33;;;;;;;46.28;6.50;;;11.20;99.90;;;;;;10551433;27;20051;-63
2024/02/14 20:51:36;;;;;;;43.47;8.95;;;11.30;99.90;;;;;;10551742;27;20050;-63
2024/02/14 20:56:39;;;;;;;29.67;5.43;;;11.30;99.90;;;;;;10553856;27;20068;-62
2024/02/14 21:01:41;;;;;;;40.28;6.25;;;11.30;99.90;;;;;;10559509;27;20514;-64
2024/02/14 21:06:43;;;;;;;41.90;6.53;;;11.20;99.90;;;;;;10556910;27;20055;-64
2024/02/14 21:11:46;;;;;;;44.77;7.67;;;11.20;99.90;;;;;;10558675;27;20062;-64
2024/02/14 21:16:49;;;;;;;28.98;6.55;;;11.20;99.90;;;;;;10560344;27;20105;-63
2024/02/14 21:21:52;;;;;;;39.65;5.10;;;11.30;99.90;;;;;;10558424;27;20039;-63
2024/02/14 21:26:56;;;;;;;29.77;4.40;;;11.40;99.90;;;;;;10562831;27;20039;-62
2024/02/14 21:31:58;;;;;;;31.52;5.75;;;11.50;99.90;;;;;;10564754;27;20166;-63
2024/02/14 21:37:01;;;;;;;36.28;5.28;;;11.40;99.90;;;;;;10564730;27;20460;-64
2024/02/14 21:42:07;;;;;;;45.17;5.22;;;11.40;99.90;;;;;;10568536;27;20206;-63
2024/02/14 21:47:09;;;;;;;54.30;7.88;;;11.30;99.90;;;;;;10561814;27;20042;-62
2024/02/14 21:52:11;;;;;;;30.50;5.80;;;11.50;99.90;;;;;;10568608;27;20054;-62
2024/02/14 21:57:15;;;;;;;27.83;6.18;;;11.50;99.90;;;;;;10567613;27;20051;-63
2024/02/14 22:02:18;;;;;;;41.17;5.72;;;11.70;99.90;;;;;;10570669;27;20083;-63
2024/02/14 22:07:21;;;;;;;35.93;5.90;;;11.40;99.90;;;;;;10562528;27;20410;-62
2024/02/14 22:12:24;;;;;;;33.63;6.18;;;11.50;99.90;;;;;;10563458;27;20484;-62
2024/02/14 22:17:27;;;;;;;31.02;5.78;;;11.50;99.90;;;;;;10565457;27;20495;-63
2024/02/14 22:22:29;;;;;;;22.42;5.63;;;11.50;99.90;;;;;;10563436;27;20044;-63
2024/02/14 22:27:33;;;;;;;22.13;4.87;;;11.80;99.90;;;;;;10560640;27;20059;-63
2024/02/14 22:32:36;;;;;;;29.00;4.47;;;11.50;99.90;;;;;;10558476;27;20056;-62
2024/02/14 22:37:38;;;;;;;28.40;4.23;;;11.70;99.90;;;;;;10561529;27;20095;-63
2024/02/14 22:42:42;;;;;;;25.60;3.67;;;11.80;99.90;;;;;;10562959;27;20075;-63
2024/02/14 22:47:44;;;;;;;21.65;3.35;;;11.90;99.90;;;;;;10544080;27;20095;-62
2024/02/14 22:52:47;;;;;;;19.37;3.27;;;11.90;99.90;;;;;;10557870;27;20059;-63
2024/02/14 22:57:51;;;;;;;21.58;3.80;;;12.10;99.90;;;;;;10558886;27;20050;-62
2024/02/14 23:02:53;;;;;;;27.15;4.20;;;12.10;99.90;;;;;;10563381;27;20047;-63
2024/02/14 23:07:57;;;;;;;14.38;3.83;;;12.10;99.90;;;;;;10559156;27;20048;-62
2024/02/14 23:13:01;;;;;;;22.25;3.35;;;12.40;99.90;;;;;;10558039;27;20044;-62
2024/02/14 23:18:03;;;;;;;17.17;4.07;;;12.30;99.90;;;;;;10552879;27;20059;-64
2024/02/14 23:23:05;;;;;;;16.27;3.20;;;12.20;99.90;;;;;;10560404;27;20058;-62
2024/02/14 23:28:08;;;;;;;20.65;4.95;;;12.30;99.90;;;;;;10560608;27;20058;-64
2024/02/14 23:33:12;;;;;;;20.50;4.55;;;12.20;99.90;;;;;;10571804;27;20131;-62
2024/02/14 23:38:14;;;;;;;17.90;3.92;;;12.20;99.90;;;;;;10574549;27;20050;-63
2024/02/14 23:43:17;;;;;;;14.63;3.55;;;12.20;99.90;;;;;;10556529;27;20762;-63
2024/02/14 23:48:23;;;;;;;12.82;4.10;;;12.50;99.90;;;;;;10560603;27;20051;-63
2024/02/14 23:53:25;;;;;;;11.82;4.60;;;12.70;99.90;;;;;;10563648;27;20046;-63
2024/02/14 23:58:29;;;;;;;19.55;3.90;;;12.60;99.90;;;;;;10560112;27;20051;-62
